Hanjin Philadelphia — A8CN8 — position and weather

sailwx.info

Track history (hours):
 
Tides and Currents Weather Stations Pressure Air Temp Water Temp Dewpoint Dewpoint Depression Visibility Wind Speed Wind Dir Waves Ship Positions

Hanjin Philadelphia

Last reported at 2015-Aug-21 03:30 UTC. Time now 2015-Sep-04 16:39 UTC.
Position N 01°16' E 104°15'.
Warning: this ship's position is 14 days out of date.

Length 282.1 m; beam 32.2 m; draft 13 m.

Type: Ship. MMSI: 636026894.

Date/timePositionNaut miles runAvg speedWind from/ knotsBaromVisibWave heightAir tempDewpointWater temp
2015-Aug-21 03:30N 01°16' E 104°15'8 8.5
2015-Aug-21 02:33N 01°15' E 104°07'9 8.7
2015-Aug-21 01:32N 01°14' E 103°58'9 9.0
2015-Aug-21 00:32N 01°12' E 103°49'5 4.9
2015-Aug-20 23:34N 01°16' E 103°47'0 0.3
2015-Aug-20 22:29N 01°16' E 103°46'0 0.0
2015-Aug-20 21:29N 01°16' E 103°46'0 0.0
2015-Aug-20 20:23N 01°16' E 103°46'0 0.0
2015-Aug-20 19:29N 01°16' E 103°46'0 0.0
2015-Aug-20 18:29N 01°16' E 103°46'0 0.0
2015-Aug-20 17:32N 01°16' E 103°46'0 0.0
2015-Aug-20 16:32N 01°16' E 103°46'0 0.0
2015-Aug-20 15:29N 01°16' E 103°46'0 0.0
2015-Aug-20 14:32N 01°16' E 103°46'0 0.0
2015-Aug-20 13:23N 01°16' E 103°46'0 0.0
2015-Aug-20 12:23N 01°16' E 103°46'0 0.0
2015-Aug-20 11:32N 01°16' E 103°46'0 0.0
2015-Aug-20 10:26N 01°16' E 103°46'0 0.0
2015-Aug-20 09:32N 01°16' E 103°46'0 0.1
2015-Aug-20 08:29N 01°16' E 103°46'0 0.1
2015-Aug-20 07:32N 01°16' E 103°46'0 0.0
2015-Aug-20 06:32N 01°16' E 103°46'0 0.0
2015-Aug-20 05:29N 01°16' E 103°46'0 0.0
2015-Aug-20 04:32N 01°16' E 103°46'0 0.0
2015-Aug-20 03:29N 01°16' E 103°46'0 0.0
2015-Aug-20 02:33N 01°16' E 103°46'0 0.0
2015-Aug-20 01:31N 01°16' E 103°46'1 0.9
2015-Aug-20 00:34N 01°15' E 103°47'1 0.6
2015-Aug-19 23:34N 01°15' E 103°47'7 7.3
2015-Aug-19 22:33N 01°14' E 103°54'8 8.5
2015-Aug-19 21:33N 01°16' E 104°02'1111.2
2015-Aug-19 20:33N 01°18' E 104°13'  
2015-Aug-17 06:00S 14°00' E 107°30'91319.0 080 / 161016.010.8 1.027.521.926.2
2015-Aug-15 06:00S 28°24' E 112°48'10519.3 340 / 141017.010.8 0.523.516.620.7
2015-Aug-15 00:33S 29°55' E 113°47'13618.9
2015-Aug-14 17:20S 31°45' E 115°22'1519.5
2015-Aug-14 16:34S 31°54' E 115°35'1211.6
2015-Aug-14 15:33S 32°03' E 115°45'1 0.6
2015-Aug-14 14:32S 32°03' E 115°45'0 0.0
2015-Aug-14 13:32S 32°03' E 115°45'0 0.0
2015-Aug-14 12:32S 32°03' E 115°45'0 0.0
2015-Aug-14 11:32S 32°03' E 115°45'0 0.0
2015-Aug-14 10:32S 32°03' E 115°45'0 0.0
2015-Aug-14 09:32S 32°03' E 115°45'0 0.0
2015-Aug-14 08:32S 32°03' E 115°45'0 0.0
2015-Aug-14 07:32S 32°03' E 115°45'0 0.0
2015-Aug-14 06:32S 32°03' E 115°45'0 0.0
2015-Aug-14 05:32S 32°03' E 115°45'0 0.0
2015-Aug-14 04:32S 32°03' E 115°45'0 0.0
2015-Aug-14 03:32S 32°03' E 115°45'0 0.0
2015-Aug-14 02:32S 32°03' E 115°45'0 0.0
2015-Aug-14 01:32S 32°03' E 115°45'0 0.0
2015-Aug-14 00:32S 32°03' E 115°45'0 0.0
2015-Aug-13 23:32S 32°03' E 115°45'0 0.0
2015-Aug-13 22:32S 32°03' E 115°45'0 0.0
2015-Aug-13 21:32S 32°03' E 115°45'0 0.0
2015-Aug-13 20:32S 32°03' E 115°45'0 0.0
2015-Aug-13 19:32S 32°03' E 115°45'0 0.0
2015-Aug-13 18:32S 32°03' E 115°45'0 0.0
2015-Aug-13 17:32S 32°03' E 115°45'0 0.0
2015-Aug-13 16:32S 32°03' E 115°45'0 0.0
2015-Aug-13 15:32S 32°03' E 115°45'0 0.0
2015-Aug-13 14:32S 32°03' E 115°45'3 3.0
2015-Aug-13 13:33S 32°02' E 115°41'1 1.3
2015-Aug-13 12:33S 32°02' E 115°40'0 0.0
2015-Aug-13 11:33S 32°02' E 115°40'0 0.1
2015-Aug-13 10:33S 32°02' E 115°40'0 0.1
2015-Aug-13 09:33S 32°02' E 115°40'2 2.2
2015-Aug-13 08:33S 32°01' E 115°42'1010.4
2015-Aug-13 07:33S 31°54' E 115°32'1310.7
2015-Aug-13 06:20S 32°01' E 115°19'235 9.7
2015-Aug-12 06:00S 35°18' E 117°54'16313.6 240 / 191026.010.8 1.016.011.718.4
2015-Aug-11 18:00S 35°00' E 121°12'   230 / 251024.010.8 14.012.314.9
Track history (hours):
 
Tides and Currents Weather Stations Pressure Air Temp Water Temp Dewpoint Dewpoint Depression Visibility Wind Speed Wind Dir Waves Ship Positions

Hanjin Philadelphia

Last reported at 2015-Aug-21 03:30 UTC. Time now 2015-Sep-04 16:39 UTC.
Position N 01°16' E 104°15'.
Warning: this ship's position is 14 days out of date.

Length 282.1 m; beam 32.2 m; draft 13 m.

Type: Ship. MMSI: 636026894.

Date/timePositionNaut miles runAvg speedWind from/ knotsBaromVisibWave heightAir tempDewpointWater temp
2015-Aug-21 03:30N 01°16' E 104°15'8 8.5
2015-Aug-21 02:33N 01°15' E 104°07'9 8.7
2015-Aug-21 01:32N 01°14' E 103°58'9 9.0
2015-Aug-21 00:32N 01°12' E 103°49'5 4.9
2015-Aug-20 23:34N 01°16' E 103°47'0 0.3
2015-Aug-20 22:29N 01°16' E 103°46'0 0.0
2015-Aug-20 21:29N 01°16' E 103°46'0 0.0
2015-Aug-20 20:23N 01°16' E 103°46'0 0.0
2015-Aug-20 19:29N 01°16' E 103°46'0 0.0
2015-Aug-20 18:29N 01°16' E 103°46'0 0.0
2015-Aug-20 17:32N 01°16' E 103°46'0 0.0
2015-Aug-20 16:32N 01°16' E 103°46'0 0.0
2015-Aug-20 15:29N 01°16' E 103°46'0 0.0
2015-Aug-20 14:32N 01°16' E 103°46'0 0.0
2015-Aug-20 13:23N 01°16' E 103°46'0 0.0
2015-Aug-20 12:23N 01°16' E 103°46'0 0.0
2015-Aug-20 11:32N 01°16' E 103°46'0 0.0
2015-Aug-20 10:26N 01°16' E 103°46'0 0.0
2015-Aug-20 09:32N 01°16' E 103°46'0 0.1
2015-Aug-20 08:29N 01°16' E 103°46'0 0.1
2015-Aug-20 07:32N 01°16' E 103°46'0 0.0
2015-Aug-20 06:32N 01°16' E 103°46'0 0.0
2015-Aug-20 05:29N 01°16' E 103°46'0 0.0
2015-Aug-20 04:32N 01°16' E 103°46'0 0.0
2015-Aug-20 03:29N 01°16' E 103°46'0 0.0
2015-Aug-20 02:33N 01°16' E 103°46'0 0.0
2015-Aug-20 01:31N 01°16' E 103°46'1 0.9
2015-Aug-20 00:34N 01°15' E 103°47'1 0.6
2015-Aug-19 23:34N 01°15' E 103°47'7 7.3
2015-Aug-19 22:33N 01°14' E 103°54'8 8.5
2015-Aug-19 21:33N 01°16' E 104°02'1111.2
2015-Aug-19 20:33N 01°18' E 104°13'  
2015-Aug-17 06:00S 14°00' E 107°30'91319.0 080 / 161016.010.8 1.027.521.926.2
2015-Aug-15 06:00S 28°24' E 112°48'10519.3 340 / 141017.010.8 0.523.516.620.7
2015-Aug-15 00:33S 29°55' E 113°47'13618.9
2015-Aug-14 17:20S 31°45' E 115°22'1519.5
2015-Aug-14 16:34S 31°54' E 115°35'1211.6
2015-Aug-14 15:33S 32°03' E 115°45'1 0.6
2015-Aug-14 14:32S 32°03' E 115°45'0 0.0
2015-Aug-14 13:32S 32°03' E 115°45'0 0.0
2015-Aug-14 12:32S 32°03' E 115°45'0 0.0
2015-Aug-14 11:32S 32°03' E 115°45'0 0.0
2015-Aug-14 10:32S 32°03' E 115°45'0 0.0
2015-Aug-14 09:32S 32°03' E 115°45'0 0.0
2015-Aug-14 08:32S 32°03' E 115°45'0 0.0
2015-Aug-14 07:32S 32°03' E 115°45'0 0.0
2015-Aug-14 06:32S 32°03' E 115°45'0 0.0
2015-Aug-14 05:32S 32°03' E 115°45'0 0.0
2015-Aug-14 04:32S 32°03' E 115°45'0 0.0
2015-Aug-14 03:32S 32°03' E 115°45'0 0.0
2015-Aug-14 02:32S 32°03' E 115°45'0 0.0
2015-Aug-14 01:32S 32°03' E 115°45'0 0.0
2015-Aug-14 00:32S 32°03' E 115°45'0 0.0
2015-Aug-13 23:32S 32°03' E 115°45'0 0.0
2015-Aug-13 22:32S 32°03' E 115°45'0 0.0
2015-Aug-13 21:32S 32°03' E 115°45'0 0.0
2015-Aug-13 20:32S 32°03' E 115°45'0 0.0
2015-Aug-13 19:32S 32°03' E 115°45'0 0.0
2015-Aug-13 18:32S 32°03' E 115°45'0 0.0
2015-Aug-13 17:32S 32°03' E 115°45'0 0.0
2015-Aug-13 16:32S 32°03' E 115°45'0 0.0
2015-Aug-13 15:32S 32°03' E 115°45'0 0.0
2015-Aug-13 14:32S 32°03' E 115°45'3 3.0
2015-Aug-13 13:33S 32°02' E 115°41'1 1.3
2015-Aug-13 12:33S 32°02' E 115°40'0 0.0
2015-Aug-13 11:33S 32°02' E 115°40'0 0.1
2015-Aug-13 10:33S 32°02' E 115°40'0 0.1
2015-Aug-13 09:33S 32°02' E 115°40'2 2.2
2015-Aug-13 08:33S 32°01' E 115°42'1010.4
2015-Aug-13 07:33S 31°54' E 115°32'1310.7
2015-Aug-13 06:20S 32°01' E 115°19'235 9.7
2015-Aug-12 06:00S 35°18' E 117°54'16313.6 240 / 191026.010.8 1.016.011.718.4
2015-Aug-11 18:00S 35°00' E 121°12'   230 / 251024.010.8 14.012.314.9

Dump ship's entire track history